sensor_id;sensor_type;location;lat;lon;timestamp;pressure;altitude;pressure_sealevel;temperature;humidity
58373;BME280;44177;43.356;27.672;2023-03-20T00:01:21;98555.97;;;3.21;100.00
58373;BME280;44177;43.356;27.672;2023-03-20T00:03:49;98552.41;;;3.25;100.00
58373;BME280;44177;43.356;27.672;2023-03-20T00:06:20;98552.06;;;3.32;100.00
58373;BME280;44177;43.356;27.672;2023-03-20T00:08:47;98546.66;;;3.32;100.00
58373;BME280;44177;43.356;27.672;2023-03-20T00:11:43;98550.44;;;3.31;100.00
58373;BME280;44177;43.356;27.672;2023-03-20T00:14:13;98554.22;;;3.30;100.00
58373;BME280;44177;43.356;27.672;2023-03-20T00:16:42;98556.78;;;3.21;100.00
58373;BME280;44177;43.356;27.672;2023-03-20T00:19:15;98552.81;;;3.13;100.00
58373;BME280;44177;43.356;27.672;2023-03-20T00:21:42;98557.31;;;2.99;100.00
58373;BME280;44177;43.356;27.672;2023-03-20T00:24:09;98544.69;;;2.94;100.00
58373;BME280;44177;43.356;27.672;2023-03-20T00:26:35;98548.44;;;2.98;100.00
58373;BME280;44177;43.356;27.672;2023-03-20T00:29:03;98553.53;;;3.00;100.00
58373;BME280;44177;43.356;27.672;2023-03-20T00:31:31;98540.91;;;2.95;100.00
58373;BME280;44177;43.356;27.672;2023-03-20T00:34:06;98521.03;;;2.91;100.00
58373;BME280;44177;43.356;27.672;2023-03-20T00:36:34;98526.22;;;2.82;100.00
58373;BME280;44177;43.356;27.672;2023-03-20T00:39:00;98540.84;;;3.00;100.00
58373;BME280;44177;43.356;27.672;2023-03-20T00:41:27;98540.25;;;3.04;100.00
58373;BME280;44177;43.356;27.672;2023-03-20T00:43:57;98536.91;;;2.93;100.00
58373;BME280;44177;43.356;27.672;2023-03-20T00:46:24;98543.81;;;2.99;100.00
58373;BME280;44177;43.356;27.672;2023-03-20T00:48:50;98544.28;;;3.06;100.00
58373;BME280;44177;43.356;27.672;2023-03-20T00:51:17;98542.16;;;3.03;100.00
58373;BME280;44177;43.356;27.672;2023-03-20T00:53:43;98533.34;;;2.97;100.00
58373;BME280;44177;43.356;27.672;2023-03-20T00:56:35;98539.25;;;2.99;100.00
58373;BME280;44177;43.356;27.672;2023-03-20T00:59:04;98536.81;;;2.98;100.00
58373;BME280;44177;43.356;27.672;2023-03-20T01:01:30;98520.19;;;2.91;100.00
58373;BME280;44177;43.356;27.672;2023-03-20T01:04:00;98536.78;;;3.03;100.00
58373;BME280;44177;43.356;27.672;2023-03-20T01:06:26;98527.34;;;3.00;100.00
58373;BME280;44177;43.356;27.672;2023-03-20T01:08:53;98514.25;;;2.94;100.00
58373;BME280;44177;43.356;27.672;2023-03-20T01:11:22;98516.88;;;2.99;100.00
58373;BME280;44177;43.356;27.672;2023-03-20T01:13:48;98523.94;;;2.95;100.00
58373;BME280;44177;43.356;27.672;2023-03-20T01:16:24;98526.28;;;3.02;100.00
58373;BME280;44177;43.356;27.672;2023-03-20T01:18:50;98534.13;;;2.98;100.00
58373;BME280;44177;43.356;27.672;2023-03-20T01:21:16;98540.59;;;2.97;100.00
58373;BME280;44177;43.356;27.672;2023-03-20T01:23:42;98520.44;;;2.94;100.00
58373;BME280;44177;43.356;27.672;2023-03-20T01:28:45;98516.34;;;2.97;100.00
58373;BME280;44177;43.356;27.672;2023-03-20T01:31:13;98477.03;;;2.72;100.00
58373;BME280;44177;43.356;27.672;2023-03-20T01:33:38;98501.84;;;2.93;100.00
58373;BME280;44177;43.356;27.672;2023-03-20T01:36:04;98500.47;;;2.95;100.00
58373;BME280;44177;43.356;27.672;2023-03-20T01:38:29;98499.09;;;2.98;100.00
58373;BME280;44177;43.356;27.672;2023-03-20T01:40:56;98499.53;;;3.05;100.00
58373;BME280;44177;43.356;27.672;2023-03-20T01:43:25;98496.41;;;2.98;100.00
58373;BME280;44177;43.356;27.672;2023-03-20T01:45:59;98500.91;;;3.03;100.00
58373;BME280;44177;43.356;27.672;2023-03-20T01:51:25;98495.59;;;2.97;100.00
58373;BME280;44177;43.356;27.672;2023-03-20T01:54:10;98495.31;;;2.99;100.00
58373;BME280;44177;43.356;27.672;2023-03-20T01:56:45;98483.06;;;2.88;100.00
58373;BME280;44177;43.356;27.672;2023-03-20T01:59:16;98493.13;;;3.01;100.00
58373;BME280;44177;43.356;27.672;2023-03-20T02:01:44;98480.31;;;2.93;100.00
58373;BME280;44177;43.356;27.672;2023-03-20T02:04:10;98495.66;;;2.92;100.00
58373;BME280;44177;43.356;27.672;2023-03-20T02:06:38;98479.00;;;2.90;100.00
58373;BME280;44177;43.356;27.672;2023-03-20T02:09:04;98476.22;;;2.95;100.00
58373;BME280;44177;43.356;27.672;2023-03-20T02:11:30;98478.69;;;2.92;100.00
58373;BME280;44177;43.356;27.672;2023-03-20T02:13:58;98469.59;;;2.88;100.00
58373;BME280;44177;43.356;27.672;2023-03-20T02:16:25;98477.09;;;2.91;100.00
58373;BME280;44177;43.356;27.672;2023-03-20T02:18:51;98464.25;;;2.82;100.00
58373;BME280;44177;43.356;27.672;2023-03-20T02:30:00;98476.75;;;2.73;100.00
58373;BME280;44177;43.356;27.672;2023-03-20T02:40:57;98463.88;;;2.70;100.00
58373;BME280;44177;43.356;27.672;2023-03-20T02:51:04;98471.03;;;2.80;100.00
58373;BME280;44177;43.356;27.672;2023-03-20T02:53:42;98464.31;;;2.77;100.00
58373;BME280;44177;43.356;27.672;2023-03-20T02:56:16;98457.41;;;2.71;100.00
58373;BME280;44177;43.356;27.672;2023-03-20T03:02:03;98454.63;;;2.76;100.00
58373;BME280;44177;43.356;27.672;2023-03-20T03:04:33;98456.38;;;2.86;100.00
58373;BME280;44177;43.356;27.672;2023-03-20T03:07:01;98459.22;;;2.76;100.00
58373;BME280;44177;43.356;27.672;2023-03-20T03:09:42;98460.53;;;2.78;100.00
58373;BME280;44177;43.356;27.672;2023-03-20T03:12:19;98445.28;;;2.68;100.00
58373;BME280;44177;43.356;27.672;2023-03-20T03:14:48;98461.84;;;2.81;100.00
58373;BME280;44177;43.356;27.672;2023-03-20T03:17:16;98465.28;;;2.87;100.00
58373;BME280;44177;43.356;27.672;2023-03-20T03:19:46;98477.50;;;2.79;100.00
58373;BME280;44177;43.356;27.672;2023-03-20T03:22:16;98475.84;;;2.83;100.00
58373;BME280;44177;43.356;27.672;2023-03-20T03:24:48;98494.34;;;2.90;100.00
58373;BME280;44177;43.356;27.672;2023-03-20T03:27:21;98484.38;;;2.90;100.00
58373;BME280;44177;43.356;27.672;2023-03-20T03:29:52;98473.38;;;2.87;100.00
58373;BME280;44177;43.356;27.672;2023-03-20T03:32:32;98472.75;;;2.95;100.00
58373;BME280;44177;43.356;27.672;2023-03-20T03:35:00;98457.25;;;2.81;100.00
58373;BME280;44177;43.356;27.672;2023-03-20T03:40:42;98463.91;;;2.89;100.00
58373;BME280;44177;43.356;27.672;2023-03-20T03:43:26;98465.50;;;2.90;100.00
58373;BME280;44177;43.356;27.672;2023-03-20T03:46:03;98454.00;;;2.84;100.00
58373;BME280;44177;43.356;27.672;2023-03-20T03:48:47;98467.34;;;2.95;100.00
58373;BME280;44177;43.356;27.672;2023-03-20T03:51:17;98468.97;;;2.96;100.00
58373;BME280;44177;43.356;27.672;2023-03-20T03:53:48;98455.53;;;2.91;100.00
58373;BME280;44177;43.356;27.672;2023-03-20T03:56:19;98460.06;;;2.95;100.00
58373;BME280;44177;43.356;27.672;2023-03-20T03:58:51;98456.50;;;3.00;100.00
58373;BME280;44177;43.356;27.672;2023-03-20T04:01:19;98460.06;;;2.95;100.00
58373;BME280;44177;43.356;27.672;2023-03-20T04:03:48;98475.25;;;2.86;100.00
58373;BME280;44177;43.356;27.672;2023-03-20T04:06:15;98466.41;;;2.80;100.00
58373;BME280;44177;43.356;27.672;2023-03-20T04:08:42;98477.09;;;2.91;100.00
58373;BME280;44177;43.356;27.672;2023-03-20T04:11:28;98469.28;;;2.89;100.00
58373;BME280;44177;43.356;27.672;2023-03-20T04:13:53;98472.84;;;2.84;100.00
58373;BME280;44177;43.356;27.672;2023-03-20T04:16:22;98469.59;;;2.88;100.00
58373;BME280;44177;43.356;27.672;2023-03-20T04:18:48;98470.94;;;2.85;100.00
58373;BME280;44177;43.356;27.672;2023-03-20T04:21:14;98467.00;;;2.77;100.00
58373;BME280;44177;43.356;27.672;2023-03-20T04:23:40;98475.63;;;2.79;100.00
58373;BME280;44177;43.356;27.672;2023-03-20T04:26:06;98460.47;;;2.83;100.00
58373;BME280;44177;43.356;27.672;2023-03-20T04:28:32;98479.72;;;2.96;100.00
58373;BME280;44177;43.356;27.672;2023-03-20T04:30:59;98471.06;;;2.99;100.00
58373;BME280;44177;43.356;27.672;2023-03-20T04:33:26;98468.88;;;3.01;100.00
58373;BME280;44177;43.356;27.672;2023-03-20T04:35:52;98472.78;;;2.90;100.00
58373;BME280;44177;43.356;27.672;2023-03-20T04:38:18;98474.09;;;2.92;100.00
58373;BME280;44177;43.356;27.672;2023-03-20T04:40:44;98477.31;;;2.94;100.00
58373;BME280;44177;43.356;27.672;2023-03-20T04:43:11;98477.03;;;2.96;100.00
58373;BME280;44177;43.356;27.672;2023-03-20T04:45:37;98470.19;;;3.04;100.00
58373;BME280;44177;43.356;27.672;2023-03-20T04:48:02;98472.00;;;3.08;100.00
58373;BME280;44177;43.356;27.672;2023-03-20T04:50:28;98481.75;;;3.04;100.00
58373;BME280;44177;43.356;27.672;2023-03-20T04:52:53;98484.75;;;3.03;100.00
58373;BME280;44177;43.356;27.672;2023-03-20T04:55:18;98488.19;;;3.08;100.00
58373;BME280;44177;43.356;27.672;2023-03-20T04:57:44;98489.56;;;3.06;100.00
58373;BME280;44177;43.356;27.672;2023-03-20T05:00:10;98480.75;;;3.00;100.00
58373;BME280;44177;43.356;27.672;2023-03-20T05:02:36;98486.59;;;3.07;100.00
58373;BME280;44177;43.356;27.672;2023-03-20T05:05:01;98481.75;;;3.04;100.00
58373;BME280;44177;43.356;27.672;2023-03-20T05:07:27;98474.94;;;3.12;100.00
58373;BME280;44177;43.356;27.672;2023-03-20T05:09:52;98485.84;;;3.21;100.00
58373;BME280;44177;43.356;27.672;2023-03-20T05:12:17;98480.09;;;3.27;100.00
58373;BME280;44177;43.356;27.672;2023-03-20T05:14:43;98473.31;;;3.30;100.00
58373;BME280;44177;43.356;27.672;2023-03-20T05:17:08;98471.16;;;3.32;100.00
58373;BME280;44177;43.356;27.672;2023-03-20T05:19:34;98465.97;;;3.36;100.00
58373;BME280;44177;43.356;27.672;2023-03-20T05:22:01;98475.81;;;3.45;100.00
58373;BME280;44177;43.356;27.672;2023-03-20T05:24:27;98475.72;;;3.31;100.00
58373;BME280;44177;43.356;27.672;2023-03-20T05:26:53;98480.75;;;3.38;100.00
58373;BME280;44177;43.356;27.672;2023-03-20T05:29:19;98483.31;;;3.48;100.00
58373;BME280;44177;43.356;27.672;2023-03-20T05:31:45;98491.63;;;3.52;100.00
58373;BME280;44177;43.356;27.672;2023-03-20T05:34:10;98495.63;;;3.55;100.00
58373;BME280;44177;43.356;27.672;2023-03-20T05:36:36;98488.28;;;3.60;100.00
58373;BME280;44177;43.356;27.672;2023-03-20T05:39:02;98493.47;;;3.57;100.00
58373;BME280;44177;43.356;27.672;2023-03-20T05:41:27;98490.72;;;3.76;100.00
58373;BME280;44177;43.356;27.672;2023-03-20T05:43:53;98486.56;;;3.84;100.00
58373;BME280;44177;43.356;27.672;2023-03-20T05:46:18;98483.38;;;3.82;100.00
58373;BME280;44177;43.356;27.672;2023-03-20T05:48:44;98481.56;;;3.91;100.00
58373;BME280;44177;43.356;27.672;2023-03-20T05:51:09;98485.31;;;3.95;100.00
58373;BME280;44177;43.356;27.672;2023-03-20T05:53:35;98483.56;;;3.85;100.00
58373;BME280;44177;43.356;27.672;2023-03-20T05:56:00;98484.88;;;3.88;100.00
58373;BME280;44177;43.356;27.672;2023-03-20T05:58:26;98478.03;;;3.76;100.00
58373;BME280;44177;43.356;27.672;2023-03-20T06:00:51;98485.91;;;3.73;100.00
58373;BME280;44177;43.356;27.672;2023-03-20T06:03:16;98480.16;;;3.79;100.00
58373;BME280;44177;43.356;27.672;2023-03-20T06:05:43;98486.81;;;4.01;100.00
58373;BME280;44177;43.356;27.672;2023-03-20T06:08:08;98485.38;;;3.90;100.00
58373;BME280;44177;43.356;27.672;2023-03-20T06:10:34;98473.56;;;3.86;100.00
58373;BME280;44177;43.356;27.672;2023-03-20T06:12:59;98483.59;;;3.99;100.00
58373;BME280;44177;43.356;27.672;2023-03-20T06:15:26;98479.13;;;4.08;100.00
58373;BME280;44177;43.356;27.672;2023-03-20T06:17:53;98478.25;;;4.13;100.00
58373;BME280;44177;43.356;27.672;2023-03-20T06:20:19;98484.09;;;4.34;100.00
58373;BME280;44177;43.356;27.672;2023-03-20T06:22:45;98474.97;;;4.30;100.00
58373;BME280;44177;43.356;27.672;2023-03-20T06:25:11;98482.56;;;4.42;100.00
58373;BME280;44177;43.356;27.672;2023-03-20T06:27:36;98493.09;;;4.43;100.00
58373;BME280;44177;43.356;27.672;2023-03-20T06:30:02;98484.81;;;4.40;100.00
58373;BME280;44177;43.356;27.672;2023-03-20T06:32:28;98497.72;;;4.71;100.00
58373;BME280;44177;43.356;27.672;2023-03-20T06:34:53;98502.72;;;4.78;100.00
58373;BME280;44177;43.356;27.672;2023-03-20T06:37:19;98508.94;;;4.78;100.00
58373;BME280;44177;43.356;27.672;2023-03-20T06:39:45;98491.31;;;4.81;100.00
58373;BME280;44177;43.356;27.672;2023-03-20T06:42:10;98494.53;;;4.83;100.00
58373;BME280;44177;43.356;27.672;2023-03-20T06:44:37;98502.94;;;4.81;100.00
58373;BME280;44177;43.356;27.672;2023-03-20T06:47:03;98498.41;;;5.04;100.00
58373;BME280;44177;43.356;27.672;2023-03-20T06:49:28;98503.31;;;5.16;99.87
58373;BME280;44177;43.356;27.672;2023-03-20T06:51:54;98504.50;;;5.24;100.00
58373;BME280;44177;43.356;27.672;2023-03-20T06:54:20;98509.47;;;5.31;99.32
58373;BME280;44177;43.356;27.672;2023-03-20T06:56:45;98501.28;;;5.22;97.72
58373;BME280;44177;43.356;27.672;2023-03-20T06:59:11;98505.06;;;5.35;97.32
58373;BME280;44177;43.356;27.672;2023-03-20T07:01:37;98514.50;;;5.37;96.90
58373;BME280;44177;43.356;27.672;2023-03-20T07:04:02;98506.50;;;5.32;97.03
58373;BME280;44177;43.356;27.672;2023-03-20T07:06:28;98512.75;;;5.42;97.59
58373;BME280;44177;43.356;27.672;2023-03-20T07:08:53;98515.38;;;5.47;98.07
58373;BME280;44177;43.356;27.672;2023-03-20T07:11:19;98501.22;;;5.50;97.78
58373;BME280;44177;43.356;27.672;2023-03-20T07:13:45;98523.06;;;5.53;97.46
58373;BME280;44177;43.356;27.672;2023-03-20T07:16:10;98507.97;;;5.38;96.64
58373;BME280;44177;43.356;27.672;2023-03-20T07:18:36;98509.06;;;5.37;97.31
58373;BME280;44177;43.356;27.672;2023-03-20T07:21:03;98498.13;;;5.43;97.31
58373;BME280;44177;43.356;27.672;2023-03-20T07:23:30;98498.41;;;5.55;97.34
58373;BME280;44177;43.356;27.672;2023-03-20T07:25:56;98493.38;;;5.62;97.47
58373;BME280;44177;43.356;27.672;2023-03-20T07:28:22;98495.34;;;5.71;96.90
58373;BME280;44177;43.356;27.672;2023-03-20T07:30:47;98486.13;;;5.72;96.89
58373;BME280;44177;43.356;27.672;2023-03-20T07:33:13;98495.47;;;5.88;96.59
58373;BME280;44177;43.356;27.672;2023-03-20T07:35:39;98494.34;;;5.89;96.33
58373;BME280;44177;43.356;27.672;2023-03-20T07:38:05;98495.47;;;5.88;96.70
58373;BME280;44177;43.356;27.672;2023-03-20T07:40:31;98501.09;;;5.92;96.07
58373;BME280;44177;43.356;27.672;2023-03-20T07:42:57;98503.56;;;5.88;96.30
58373;BME280;44177;43.356;27.672;2023-03-20T07:45:22;98504.22;;;5.85;95.63
58373;BME280;44177;43.356;27.672;2023-03-20T07:47:48;98506.06;;;5.98;95.38
58373;BME280;44177;43.356;27.672;2023-03-20T07:50:14;98505.84;;;6.09;95.64
58373;BME280;44177;43.356;27.672;2023-03-20T07:52:40;98507.06;;;6.03;96.27
58373;BME280;44177;43.356;27.672;2023-03-20T07:55:06;98500.25;;;6.05;94.30
58373;BME280;44177;43.356;27.672;2023-03-20T07:57:31;98491.44;;;5.99;95.04
58373;BME280;44177;43.356;27.672;2023-03-20T07:59:57;98501.94;;;6.01;95.26
58373;BME280;44177;43.356;27.672;2023-03-20T08:02:22;98498.81;;;6.08;96.01
58373;BME280;44177;43.356;27.672;2023-03-20T08:04:48;98501.56;;;6.16;94.76
58373;BME280;44177;43.356;27.672;2023-03-20T08:07:13;98510.69;;;6.21;94.19
58373;BME280;44177;43.356;27.672;2023-03-20T08:09:39;98508.66;;;6.26;92.92
58373;BME280;44177;43.356;27.672;2023-03-20T08:12:05;98515.91;;;6.40;93.82
58373;BME280;44177;43.356;27.672;2023-03-20T08:14:31;98506.66;;;6.41;93.35
58373;BME280;44177;43.356;27.672;2023-03-20T08:16:57;98518.53;;;6.54;93.33
58373;BME280;44177;43.356;27.672;2023-03-20T08:19:22;98504.69;;;6.64;93.15
58373;BME280;44177;43.356;27.672;2023-03-20T08:21:48;98522.94;;;6.81;91.93
58373;BME280;44177;43.356;27.672;2023-03-20T08:24:15;98516.09;;;6.92;90.55
58373;BME280;44177;43.356;27.672;2023-03-20T08:26:41;98507.97;;;6.92;90.34
58373;BME280;44177;43.356;27.672;2023-03-20T08:29:08;98522.84;;;7.04;90.30
58373;BME280;44177;43.356;27.672;2023-03-20T08:31:34;98518.28;;;7.31;89.71
58373;BME280;44177;43.356;27.672;2023-03-20T08:33:59;98518.47;;;7.52;88.29
58373;BME280;44177;43.356;27.672;2023-03-20T08:36:25;98512.53;;;7.50;88.23
58373;BME280;44177;43.356;27.672;2023-03-20T08:38:50;98515.25;;;7.41;88.59
58373;BME280;44177;43.356;27.672;2023-03-20T08:41:17;98526.16;;;7.58;87.71
58373;BME280;44177;43.356;27.672;2023-03-20T08:43:42;98512.41;;;7.64;86.32
58373;BME280;44177;43.356;27.672;2023-03-20T08:46:08;98511.44;;;7.42;86.58
58373;BME280;44177;43.356;27.672;2023-03-20T08:48:34;98506.66;;;7.74;86.81
58373;BME280;44177;43.356;27.672;2023-03-20T08:51:00;98502.97;;;7.87;86.39
58373;BME280;44177;43.356;27.672;2023-03-20T08:53:26;98509.38;;;7.92;84.56
58373;BME280;44177;43.356;27.672;2023-03-20T08:55:52;98496.28;;;7.85;84.30
58373;BME280;44177;43.356;27.672;2023-03-20T08:58:19;98505.38;;;7.98;83.34
58373;BME280;44177;43.356;27.672;2023-03-20T09:00:45;98506.47;;;8.14;84.00
58373;BME280;44177;43.356;27.672;2023-03-20T09:03:15;98504.09;;;8.60;82.89
58373;BME280;44177;43.356;27.672;2023-03-20T09:05:49;98501.59;;;8.37;82.55
58373;BME280;44177;43.356;27.672;2023-03-20T09:08:15;98506.88;;;8.90;80.03
58373;BME280;44177;43.356;27.672;2023-03-20T09:10:41;98505.50;;;8.75;80.47
58373;BME280;44177;43.356;27.672;2023-03-20T09:13:07;98509.41;;;8.95;80.45
58373;BME280;44177;43.356;27.672;2023-03-20T09:15:33;98478.59;;;8.82;78.64
58373;BME280;44177;43.356;27.672;2023-03-20T09:17:59;98499.28;;;9.56;77.68
58373;BME280;44177;43.356;27.672;2023-03-20T09:20:25;98499.75;;;10.13;73.94
58373;BME280;44177;43.356;27.672;2023-03-20T09:22:50;98483.63;;;10.53;71.50
58373;BME280;44177;43.356;27.672;2023-03-20T09:25:16;98485.84;;;11.38;68.40
58373;BME280;44177;43.356;27.672;2023-03-20T09:27:41;98476.91;;;11.94;65.40
58373;BME280;44177;43.356;27.672;2023-03-20T09:30:08;98479.75;;;12.26;64.41
58373;BME280;44177;43.356;27.672;2023-03-20T09:32:35;98474.09;;;12.51;63.71
58373;BME280;44177;43.356;27.672;2023-03-20T09:35:01;98460.56;;;12.10;65.12
58373;BME280;44177;43.356;27.672;2023-03-20T09:37:27;98461.09;;;13.12;62.50
58373;BME280;44177;43.356;27.672;2023-03-20T09:39:53;98460.03;;;13.92;60.17
58373;BME280;44177;43.356;27.672;2023-03-20T09:45:20;98465.84;;;14.76;54.78
58373;BME280;44177;43.356;27.672;2023-03-20T09:48:10;98467.84;;;14.56;55.24
58373;BME280;44177;43.356;27.672;2023-03-20T09:50:50;98460.94;;;15.15;55.40
58373;BME280;44177;43.356;27.672;2023-03-20T09:53:41;98454.63;;;15.76;52.61
58373;BME280;44177;43.356;27.672;2023-03-20T09:56:21;98456.31;;;16.22;51.31
58373;BME280;44177;43.356;27.672;2023-03-20T09:58:53;98440.16;;;16.58;51.08
58373;BME280;44177;43.356;27.672;2023-03-20T10:01:22;98440.44;;;16.94;49.00
58373;BME280;44177;43.356;27.672;2023-03-20T10:03:55;98447.44;;;16.88;50.12
58373;BME280;44177;43.356;27.672;2023-03-20T10:06:22;98439.13;;;17.40;47.81
58373;BME280;44177;43.356;27.672;2023-03-20T10:08:48;98441.50;;;17.42;48.99
58373;BME280;44177;43.356;27.672;2023-03-20T10:22:44;98431.81;;;17.80;47.01
58373;BME280;44177;43.356;27.672;2023-03-20T10:25:22;98421.69;;;18.17;47.66
58373;BME280;44177;43.356;27.672;2023-03-20T10:27:55;98416.00;;;17.70;46.75
58373;BME280;44177;43.356;27.672;2023-03-20T10:30:47;98414.94;;;18.00;46.76
58373;BME280;44177;43.356;27.672;2023-03-20T10:41:17;98407.88;;;18.82;44.48
58373;BME280;44177;43.356;27.672;2023-03-20T10:43:44;98408.25;;;19.09;44.25
58373;BME280;44177;43.356;27.672;2023-03-20T10:49:15;98395.84;;;19.50;41.83
58373;BME280;44177;43.356;27.672;2023-03-20T10:56:47;98390.53;;;18.56;44.78
58373;BME280;44177;43.356;27.672;2023-03-20T11:01:46;98379.25;;;19.50;44.21
58373;BME280;44177;43.356;27.672;2023-03-20T11:04:12;98383.66;;;20.11;42.75
58373;BME280;44177;43.356;27.672;2023-03-20T11:06:47;98383.44;;;19.87;41.19
58373;BME280;44177;43.356;27.672;2023-03-20T11:09:23;98377.78;;;20.58;41.22
58373;BME280;44177;43.356;27.672;2023-03-20T11:11:55;98362.13;;;20.37;40.80
58373;BME280;44177;43.356;27.672;2023-03-20T11:14:24;98356.94;;;20.85;40.31
58373;BME280;44177;43.356;27.672;2023-03-20T11:16:55;98370.63;;;20.61;40.89
58373;BME280;44177;43.356;27.672;2023-03-20T11:19:22;98364.75;;;20.51;40.77
58373;BME280;44177;43.356;27.672;2023-03-20T11:21:50;98343.41;;;20.94;39.54
58373;BME280;44177;43.356;27.672;2023-03-20T11:26:47;98354.16;;;21.23;39.61
58373;BME280;44177;43.356;27.672;2023-03-20T11:29:28;98347.25;;;20.62;40.06
58373;BME280;44177;43.356;27.672;2023-03-20T11:32:03;98344.69;;;20.36;40.74
58373;BME280;44177;43.356;27.672;2023-03-20T11:34:30;98344.47;;;20.20;41.52
58373;BME280;44177;43.356;27.672;2023-03-20T11:36:59;98337.47;;;20.04;41.87
58373;BME280;44177;43.356;27.672;2023-03-20T11:39:29;98332.09;;;20.32;40.56
58373;BME280;44177;43.356;27.672;2023-03-20T11:42:01;98329.34;;;20.70;41.16
58373;BME280;44177;43.356;27.672;2023-03-20T11:44:32;98334.00;;;20.80;39.98
58373;BME280;44177;43.356;27.672;2023-03-20T11:49:24;98319.00;;;21.12;38.85
58373;BME280;44177;43.356;27.672;2023-03-20T11:51:52;98319.97;;;20.57;38.86
58373;BME280;44177;43.356;27.672;2023-03-20T11:54:22;98307.91;;;20.36;39.94
58373;BME280;44177;43.356;27.672;2023-03-20T11:56:57;98317.00;;;20.36;39.70
58373;BME280;44177;43.356;27.672;2023-03-20T11:59:32;98298.25;;;20.10;40.37
58373;BME280;44177;43.356;27.672;2023-03-20T12:02:11;98300.56;;;20.57;39.08
58373;BME280;44177;43.356;27.672;2023-03-20T12:04:42;98294.50;;;20.31;39.83
58373;BME280;44177;43.356;27.672;2023-03-20T12:07:17;98294.69;;;20.93;39.99
58373;BME280;44177;43.356;27.672;2023-03-20T12:10:27;98294.69;;;21.24;37.53
58373;BME280;44177;43.356;27.672;2023-03-20T12:12:39;98293.03;;;20.99;38.47
58373;BME280;44177;43.356;27.672;2023-03-20T12:22:45;98282.81;;;20.50;38.95
58373;BME280;44177;43.356;27.672;2023-03-20T12:25:25;98285.06;;;21.01;37.79
58373;BME280;44177;43.356;27.672;2023-03-20T12:28:02;98287.50;;;20.95;37.94
58373;BME280;44177;43.356;27.672;2023-03-20T12:33:43;98270.75;;;19.77;39.02
58373;BME280;44177;43.356;27.672;2023-03-20T12:36:14;98292.50;;;19.08;41.55
58373;BME280;44177;43.356;27.672;2023-03-20T12:38:41;98278.41;;;18.66;41.77
58373;BME280;44177;43.356;27.672;2023-03-20T12:41:14;98288.69;;;18.51;42.18
58373;BME280;44177;43.356;27.672;2023-03-20T12:46:23;98279.28;;;18.30;42.06
58373;BME280;44177;43.356;27.672;2023-03-20T12:54:10;98259.56;;;18.28;43.41
58373;BME280;44177;43.356;27.672;2023-03-20T12:59:55;98258.75;;;17.92;43.32
58373;BME280;44177;43.356;27.672;2023-03-20T13:02:32;98272.19;;;17.93;43.36
58373;BME280;44177;43.356;27.672;2023-03-20T13:10:58;98256.31;;;17.32;44.96
58373;BME280;44177;43.356;27.672;2023-03-20T13:13:46;98249.06;;;16.84;46.23
58373;BME280;44177;43.356;27.672;2023-03-20T13:21:37;98260.50;;;16.16;48.07
58373;BME280;44177;43.356;27.672;2023-03-20T13:32:14;98259.50;;;15.90;50.39
58373;BME280;44177;43.356;27.672;2023-03-20T13:37:47;98245.69;;;15.42;50.56
58373;BME280;44177;43.356;27.672;2023-03-20T13:40:21;98252.47;;;15.52;51.21
58373;BME280;44177;43.356;27.672;2023-03-20T13:45:41;98251.00;;;15.24;50.98
58373;BME280;44177;43.356;27.672;2023-03-20T13:56:56;98252.38;;;14.46;51.90
58373;BME280;44177;43.356;27.672;2023-03-20T14:04:19;98246.69;;;13.78;54.95
58373;BME280;44177;43.356;27.672;2023-03-20T14:06:54;98250.25;;;13.82;55.13
58373;BME280;44177;43.356;27.672;2023-03-20T14:09:36;98250.25;;;13.82;55.41
58373;BME280;44177;43.356;27.672;2023-03-20T14:12:07;98245.81;;;13.50;55.32
58373;BME280;44177;43.356;27.672;2023-03-20T14:14:48;98233.63;;;13.05;57.45
58373;BME280;44177;43.356;27.672;2023-03-20T14:19:42;98225.31;;;12.42;59.13
58373;BME280;44177;43.356;27.672;2023-03-20T14:22:34;98240.47;;;12.20;59.83
58373;BME280;44177;43.356;27.672;2023-03-20T14:25:11;98242.88;;;12.06;60.57
58373;BME280;44177;43.356;27.672;2023-03-20T14:28:04;98246.84;;;11.92;61.62
58373;BME280;44177;43.356;27.672;2023-03-20T14:33:06;98238.19;;;11.58;62.39
58373;BME280;44177;43.356;27.672;2023-03-20T14:36:10;98243.91;;;11.37;63.19
58373;BME280;44177;43.356;27.672;2023-03-20T14:47:06;98243.03;;;10.23;67.75
58373;BME280;44177;43.356;27.672;2023-03-20T14:49:54;98246.22;;;10.25;67.82
58373;BME280;44177;43.356;27.672;2023-03-20T14:52:37;98252.59;;;10.04;68.59
58373;BME280;44177;43.356;27.672;2023-03-20T14:55:45;98244.41;;;9.92;69.39
58373;BME280;44177;43.356;27.672;2023-03-20T15:01:04;98242.81;;;9.91;70.02
58373;BME280;44177;43.356;27.672;2023-03-20T15:03:30;98249.53;;;9.69;70.16
58373;BME280;44177;43.356;27.672;2023-03-20T15:05:58;98250.38;;;9.48;71.23
58373;BME280;44177;43.356;27.672;2023-03-20T15:08:28;98242.69;;;9.50;71.14
58373;BME280;44177;43.356;27.672;2023-03-20T15:10:57;98252.09;;;9.40;71.59
58373;BME280;44177;43.356;27.672;2023-03-20T15:13:24;98245.41;;;9.50;72.14
58373;BME280;44177;43.356;27.672;2023-03-20T15:16:07;98257.63;;;9.31;72.68
58373;BME280;44177;43.356;27.672;2023-03-20T15:18:51;98254.66;;;9.24;72.67
58373;BME280;44177;43.356;27.672;2023-03-20T15:21:27;98249.97;;;9.12;73.48
58373;BME280;44177;43.356;27.672;2023-03-20T15:23:55;98258.56;;;9.02;73.71
58373;BME280;44177;43.356;27.672;2023-03-20T15:26:21;98250.41;;;9.02;73.73
58373;BME280;44177;43.356;27.672;2023-03-20T15:29:01;98258.50;;;8.90;74.42
58373;BME280;44177;43.356;27.672;2023-03-20T15:31:32;98262.47;;;8.92;74.40
58373;BME280;44177;43.356;27.672;2023-03-20T15:34:00;98261.56;;;8.88;74.38
58373;BME280;44177;43.356;27.672;2023-03-20T15:36:32;98254.59;;;8.78;74.63